Latest Weather Observations for Rottnest Island

IDW60801

Issued at 4:04 am WST Thursday 29 September 2016 (issued every 30 minutes, with the page automatically refreshed every 10 minutes)

About weather observations | Map of weather stations | Latest weather observations for WA | Other Formats
Station Details ID: 009193 Name: ROTTNEST ISLAND Lat: -32.01 Lon: 115.50 Height: 43.1 m
Data from the previous 72 hours. | See also: Recent months at Rottnest Island
Date/Time
WST
Temp
°C
App
Temp
°C
Dew
Point
°C
Rel
Hum
%
Delta-T
°C
Wind Press
QNH
hPa
Press
MSL
hPa
Rain since
9am
mm
Dir  Spd
km/h
Gust
km/h
Spd
kts
Gust
kts
29/04:00am 9.1 3.1 3.1 66 2.6 ENE 24 32 13 17 1021.3 1021.3 0.0
29/03:30am 9.7 3.7 3.4 65 2.7 ENE 24 32 13 17 1021.3 1021.3 0.0
29/03:00am 10.0 4.8 3.5 64 2.8 ENE 20 32 11 17 1021.2 1021.2 0.0
29/02:30am 10.4 5.3 3.9 64 2.9 ENE 20 26 11 14 1021.4 1021.4 0.0
29/02:00am 10.6 6.2 4.5 66 2.7 ENE 17 24 9 13 1021.4 1021.4 0.0
29/01:30am 10.8 6.3 4.3 64 2.9 E 17 20 9 11 1021.7 1021.7 0.0
29/01:00am 11.3 7.6 4.5 63 3.1 E 13 17 7 9 1022.2 1022.2 0.0
29/12:30am 11.5 8.1 5.8 68 2.7 ESE 13 17 7 9 1022.4 1022.4 0.0
29/12:00am 11.7 8.4 6.2 69 2.6 ESE 13 15 7 8 1022.5 1022.5 0.0
 
Date/Time
WST
Temp
°C
App
Temp
°C
Dew
Point
°C
Rel
Hum
%
Delta-T
°C
Wind Press
QNH
hPa
Press
MSL
hPa
Rain since
9am
mm
Dir  Spd
km/h
Gust
km/h
Spd
kts
Gust
kts
28/11:30pm 12.0 8.7 6.3 68 2.7 ESE 13 17 7 9 1022.7 1022.7 0.0
28/11:00pm 12.5 8.7 5.7 63 3.2 SE 15 24 8 13 1022.6 1022.6 0.0
28/10:30pm 13.1 7.9 5.3 59 3.6 SE 22 30 12 16 1022.6 1022.6 0.0
28/10:00pm 13.2 7.6 5.6 60 3.6 SSE 24 32 13 17 1022.7 1022.7 0.0
28/09:30pm 13.0 7.5 5.9 62 3.4 SSE 24 32 13 17 1022.8 1022.8 0.0
28/09:00pm 12.8 7.7 5.9 63 3.2 SSE 22 28 12 15 1022.9 1022.9 0.0
28/08:30pm 12.6 6.7 5.8 63 3.2 S 26 33 14 18 1022.8 1022.8 0.0
28/08:00pm 12.6 7.0 5.3 61 3.4 S 24 30 13 16 1022.8 1022.8 0.0
28/07:30pm 12.5 6.9 5.2 61 3.4 S 24 32 13 17 1022.9 1022.9 0.0
28/07:00pm 12.3 6.6 4.8 60 3.4 S 24 30 13 16 1022.9 1022.9 0.0
28/06:30pm 12.1 6.0 4.8 61 3.3 S 26 35 14 19 1022.9 1022.9 0.0
28/06:00pm 12.3 6.5 4.5 59 3.5 S 24 32 13 17 1022.7 1022.7 0.0
28/05:30pm 12.7 7.0 4.7 58 3.7 S 24 32 13 17 1022.5 1022.5 0.0
28/05:00pm 13.0 6.3 3.7 53 4.2 S 28 35 15 19 1022.3 1022.3 0.0
28/04:30pm 13.2 6.7 4.6 56 4.0 S 28 37 15 20 1022.2 1022.2 0.0
28/04:00pm 13.3 6.6 3.9 53 4.2 S 28 35 15 19 1022.2 1022.2 0.0
28/03:30pm 13.8 6.9 4.7 54 4.2 S 30 35 16 19 1022.5 1022.5 0.0
28/03:00pm 13.5 6.9 4.4 54 4.2 S 28 35 15 19 1022.5 1022.5 0.0
28/02:30pm 13.7 6.3 3.8 51 4.5 S 32 39 17 21 1022.5 1022.5 0.0
28/02:00pm 13.4 5.8 3.8 52 4.3 S 33 41 18 22 1022.6 1022.6 0.0
28/01:30pm 13.5 6.2 4.4 54 4.2 S 32 46 17 25 1022.7 1022.7 0.0
28/01:00pm 13.4 5.9 4.6 55 4.0 S 33 44 18 24 1023.0 1023.0 0.0
28/12:30pm 13.5 5.4 3.0 49 4.7 S 35 43 19 23 1023.2 1023.2 0.0
28/12:00pm 13.6 6.3 4.7 55 4.1 S 32 41 17 22 1023.4 1023.4 0.0
28/11:30am 13.7 6.7 4.0 52 4.4 S 30 37 16 20 1023.5 1023.5 0.0
28/11:00am 12.5 5.9 4.0 56 3.8 S 28 37 15 20 1023.8 1023.8 0.0
28/10:30am 12.1 5.0 3.6 56 3.8 SSE 30 39 16 21 1023.9 1023.9 0.0
28/10:00am 11.9 4.5 3.9 58 3.6 SSE 32 39 17 21 1023.7 1023.7 0.0
28/09:30am 11.5 5.0 4.5 62 3.2 SSE 28 39 15 21 1023.6 1023.6 0.0
28/09:00am 11.7 4.7 4.2 60 3.4 SSE 30 43 16 23 1023.4 1023.4 2.2
28/08:30am 12.1 5.1 4.1 58 3.6 SSE 30 41 16 22 1023.1 1023.1 2.2
28/08:00am 11.5 4.1 3.8 59 3.4 SSE 32 41 17 22 1022.7 1022.7 2.2
28/07:30am 10.6 4.4 4.5 66 2.7 SSE 26 35 14 19 1022.4 1022.4 2.2
28/07:08am 11.4 2.2 3.7 59 3.4 S 41 59 22 32 1021.8 1021.8 2.2
28/07:00am 11.9 1.8 1.5 49 4.4 S 44 59 24 32 1021.4 1021.4 2.2
28/06:30am 11.1 1.5 3.4 59 3.4 S 43 57 23 31 1020.9 1020.9 2.2
28/06:00am 10.9 1.0 2.7 57 3.5 S 44 59 24 32 1020.3 1020.3 2.2
28/05:30am 11.0 1.2 3.3 59 3.4 S 44 56 24 30 1019.7 1019.7 2.2
28/05:18am 10.7 1.0 3.7 62 3.1 S 44 63 24 34 1019.5 1019.4 2.2
28/05:00am 10.7 0.1 3.0 59 3.3 S 48 63 26 34 1019.0 1018.9 2.2
28/04:45am 10.7 1.2 3.7 62 3.1 S 43 61 23 33 1018.5 1018.4 2.2
28/04:30am 10.7 0.9 3.3 60 3.2 S 44 57 24 31 1018.4 1018.3 2.2
28/04:00am 10.9 1.0 4.6 65 2.8 S 46 56 25 30 1018.2 1018.1 2.2
28/03:30am 10.6 0.6 4.1 64 2.9 S 46 59 25 32 1018.0 1017.9 2.2
28/03:05am 10.4 0.7 5.6 72 2.2 S 46 65 25 35 1017.9 1017.8 2.2
28/03:00am 10.4 -0.4 5.8 73 2.1 S 52 65 28 35 1017.8 1017.7 2.2
28/02:30am 10.3 1.4 5.3 71 2.3 S 41 61 22 33 1017.5 1017.4 2.2
28/02:05am 10.4 1.5 6.9 79 1.7 SSW 43 61 23 33 1017.5 1017.4 1.8
28/02:00am 10.3 0.9 5.5 72 2.2 SSW 44 57 24 31 1017.9 1017.8 1.8
28/01:30am 10.8 0.2 5.1 68 2.6 S 50 67 27 36 1017.1 1017.0 1.8
28/01:28am 10.9 0.8 5.7 70 2.4 S 48 67 26 36 1017.1 1017.0 1.8
28/01:13am 9.7 1.2 7.0 83 1.3 SSW 41 59 22 32 1018.0 1017.9 1.6
28/01:00am 10.3 -0.5 7.7 84 1.2 S 54 67 29 36 1017.0 1016.9 1.6
28/12:30am 11.7 0.9 4.2 60 3.4 SSW 50 69 27 37 1016.8 1016.7 1.6
28/12:05am 11.7 0.1 3.7 58 3.6 SSW 54 72 29 39 1016.7 1016.6 1.6
28/12:00am 11.7 -0.2 4.4 61 3.3 SSW 56 72 30 39 1016.7 1016.6 1.6
 
Date/Time
WST
Temp
°C
App
Temp
°C
Dew
Point
°C
Rel
Hum
%
Delta-T
°C
Wind Press
QNH
hPa
Press
MSL
hPa
Rain since
9am
mm
Dir  Spd
km/h
Gust
km/h
Spd
kts
Gust
kts
27/11:49pm 12.0 1.8 5.2 63 3.1 SSW 48 70 26 38 1016.5 1016.4 1.6
27/11:30pm 11.8 1.1 2.8 54 3.9 SSW 48 65 26 35 1016.6 1016.5 1.6
27/11:06pm 12.0 1.6 2.2 51 4.2 SW 46 67 25 36 1016.6 1016.5 1.6
27/11:00pm 11.6 2.0 4.3 61 3.3 SW 44 56 24 30 1016.8 1016.7 1.6
27/10:41pm 12.0 1.9 3.5 56 3.8 SSW 46 65 25 35 1016.5 1016.4 1.6
27/10:30pm 12.0 0.8 4.0 58 3.6 SSW 52 63 28 34 1016.5 1016.4 1.6
27/10:00pm 10.6 -1.9 6.2 74 2.0 SW 61 83 33 45 1016.6 1016.5 1.6
27/09:49pm 12.5 1.8 4.7 59 3.6 SW 50 69 27 37 1016.5 1016.4 1.4
27/09:46pm 11.9 1.4 5.8 66 2.9 SW 50 65 27 35 1016.6 1016.5 1.4
27/09:30pm 10.9 -2.4 5.7 70 2.4 SSW 65 91 35 49 1016.6 1016.5 1.4
27/09:00pm 11.6 0.2 6.9 73 2.2 SSW 56 74 30 40 1015.8 1015.7 1.4
27/08:30pm 11.1 -1.3 6.5 73 2.2 SW 61 82 33 44 1016.1 1016.0 1.4
27/08:24pm 12.6 1.6 5.1 60 3.5 SW 52 74 28 40 1015.8 1015.7 1.4
27/08:00pm 13.1 1.8 5.5 60 3.6 SW 54 69 29 37 1015.5 1015.4 1.4
27/07:47pm 13.0 2.0 4.9 58 3.7 SW 52 70 28 38 1014.8 1014.7 1.4
27/07:30pm 12.6 1.0 6.6 67 2.9 SW 57 74 31 40 1014.9 1014.8 1.4
27/07:03pm 13.0 0.9 3.4 52 4.3 SW 56 74 30 40 1014.5 1014.4 1.4
27/07:00pm 13.0 0.8 3.7 53 4.2 SW 57 74 31 40 1014.5 1014.4 1.4
27/06:32pm 13.0 2.0 6.6 65 3.1 SW 54 72 29 39 1013.6 1013.5 1.4
27/06:30pm 13.0 2.1 7.2 68 2.8 SW 54 67 29 36 1013.7 1013.6 1.4
27/06:09pm 13.1 2.5 5.0 58 3.8 SW 50 69 27 37 1013.8 1013.7 1.4
27/06:00pm 13.0 1.3 5.4 60 3.6 SW 56 69 30 37 1013.7 1013.6 1.4
27/05:38pm 13.6 3.0 6.7 63 3.3 SW 52 70 28 38 1013.3 1013.2 1.4
27/05:30pm 13.3 2.1 5.7 60 3.6 SW 54 70 29 38 1013.0 1012.9 1.4
27/05:07pm 13.5 3.3 6.8 64 3.2 SW 50 69 27 37 1012.7 1012.6 1.4
27/05:00pm 13.0 1.6 6.8 66 3.0 SW 56 69 30 37 1012.8 1012.7 1.4
27/04:30pm 14.4 2.5 5.2 54 4.3 SW 57 74 31 40 1012.0 1011.9 1.4
27/04:18pm 13.8 2.1 6.2 60 3.6 SW 57 76 31 41 1011.9 1011.8 1.4
27/04:00pm 14.2 3.0 7.5 64 3.3 SW 56 69 30 37 1011.8 1011.7 1.4
27/03:41pm 14.7 4.4 9.7 72 2.6 SW 54 72 29 39 1011.5 1011.4 1.4
27/03:30pm 14.5 3.6 8.9 69 2.8 SW 56 70 30 38 1011.4 1011.3 1.4
27/03:01pm 13.9 5.0 13.0 94 0.5 SW 52 70 28 38 1011.0 1010.9 1.4
27/03:00pm 13.8 4.5 12.9 94 0.5 SW 54 70 29 38 1011.0 1010.9 1.4
27/02:36pm 14.6 4.8 8.8 68 2.9 WSW 50 69 27 37 1011.0 1010.9 1.4
27/02:30pm 14.6 4.7 8.3 66 3.2 WSW 50 63 27 34 1010.8 1010.7 1.4
27/02:09pm 14.5 4.9 8.0 65 3.2 SW 48 67 26 36 1010.6 1010.5 1.4
27/02:00pm 13.9 5.4 9.3 74 2.4 SW 44 59 24 32 1010.6 1010.5 1.4
27/01:39pm 13.1 3.6 9.7 80 1.7 SW 50 69 27 37 1010.9 1010.8 1.0
27/01:30pm 12.8 1.9 9.6 81 1.6 SW 57 74 31 40 1010.7 1010.6 1.0
27/01:13pm 12.7 2.3 11.3 91 0.7 WSW 57 80 31 43 1010.7 1010.6 0.6
27/01:09pm 12.9 3.2 10.4 85 1.3 W 52 80 28 43 1010.6 1010.5 0.4
27/01:07pm 14.1 5.0 11.1 82 1.6 W 50 70 27 38 1010.7 1010.6 0.4
27/01:00pm 14.6 6.2 12.3 86 1.3 W 48 63 26 34 1010.5 1010.4 0.4
27/12:30pm 13.6 4.8 10.8 83 1.5 W 48 76 26 41 1010.8 1010.7 0.2
27/12:18pm 15.1 5.4 10.5 74 2.4 WNW 52 70 28 38 1011.0 1010.9 0.0
27/12:00pm 18.0 9.6 10.9 63 3.8 WNW 46 61 25 33 1010.9 1010.8 0.0
27/11:53am 18.6 9.3 11.7 64 3.8 WNW 52 70 28 38 1011.1 1011.0 0.0
27/11:30am 17.8 9.1 9.9 60 4.2 WNW 46 63 25 34 1011.4 1011.3 0.0
27/11:00am 18.2 9.3 10.6 61 4.1 WNW 48 67 26 36 1011.8 1011.7 0.0
27/10:58am 18.2 9.5 10.1 59 4.3 WNW 46 67 25 36 1011.8 1011.7 0.0
27/10:30am 18.0 8.7 10.4 61 4.1 WNW 50 63 27 34 1012.3 1012.2 0.0
27/10:00am 18.4 10.4 11.2 63 3.9 WNW 44 56 24 30 1012.6 1012.5 0.0
27/09:30am 17.5 9.7 11.1 66 3.5 WNW 43 54 23 29 1012.9 1012.8 0.0
27/09:00am 17.3 9.8 10.9 66 3.4 WNW 41 50 22 27 1013.2 1013.1 0.2
27/08:30am 17.0 9.6 9.9 63 3.7 WNW 39 52 21 28 1013.4 1013.3 0.2
27/08:00am 16.7 9.2 9.6 63 3.7 WNW 39 50 21 27 1013.6 1013.5 0.2
27/07:30am 15.6 8.0 10.4 71 2.7 WNW 41 54 22 29 1013.6 1013.5 0.2
27/07:00am 15.0 9.2 11.6 80 1.8 WNW 33 43 18 23 1013.7 1013.6 0.2
27/06:30am 15.2 9.7 12.3 83 1.6 WNW 33 41 18 22 1013.8 1013.7 0.2
27/06:00am 15.3 8.8 10.3 72 2.6 WNW 35 46 19 25 1013.9 1013.8 0.2
27/05:30am 15.1 7.8 10.1 72 2.6 WNW 39 48 21 26 1014.1 1014.0 0.2
27/05:01am 15.1 9.4 11.7 80 1.8 WNW 33 52 18 28 1014.3 1014.2 0.2
27/05:00am 15.1 9.6 11.7 80 1.8 WNW 32 43 17 23 1014.3 1014.2 0.2
27/04:30am 15.0 8.9 10.6 75 2.3 WNW 33 43 18 23 1014.4 1014.3 0.2
27/04:00am 14.8 9.2 11.4 80 1.8 WNW 32 41 17 22 1014.6 1014.5 0.2
27/03:30am 14.5 8.8 11.1 80 1.8 WNW 32 41 17 22 1014.8 1014.7 0.2
27/03:00am 13.6 10.0 11.7 88 1.0 WNW 22 28 12 15 1015.3 1015.2 0.2
27/02:30am 13.8 9.0 11.8 88 1.1 W 28 39 15 21 1015.8 1015.7 0.2
27/02:08am 14.9 9.2 11.1 78 2.0 WNW 32 54 17 29 1015.9 1015.8 0.0
27/02:00am 14.9 10.4 11.5 80 1.8 WNW 26 37 14 20 1016.1 1016.0 0.0
27/01:30am 14.1 10.4 11.4 84 1.4 NW 22 30 12 16 1016.7 1016.6 0.0
27/01:00am 14.5 9.4 12.0 85 1.4 W 30 46 16 25 1016.9 1016.8 0.0
27/12:40am 14.5 8.4 11.8 84 1.5 WNW 35 54 19 29 1017.1 1017.0 0.0
27/12:30am 15.3 9.7 11.5 78 2.0 WNW 32 41 17 22 1017.1 1017.0 0.0
27/12:00am 15.5 9.2 10.9 74 2.4 WNW 35 46 19 25 1017.3 1017.2 0.0
 
Date/Time
WST
Temp
°C
App
Temp
°C
Dew
Point
°C
Rel
Hum
%
Delta-T
°C
Wind Press
QNH
hPa
Press
MSL
hPa
Rain since
9am
mm
Dir  Spd
km/h
Gust
km/h
Spd
kts
Gust
kts
26/11:30pm 15.5 9.4 10.5 72 2.6 WNW 33 39 18 21 1017.6 1017.5 0.0
26/11:00pm 15.8 10.4 11.0 73 2.6 WNW 30 41 16 22 1017.8 1017.7 0.0
26/10:30pm 15.0 11.6 11.4 79 1.9 WNW 20 28 11 15 1018.3 1018.2 0.0
26/10:00pm 14.9 10.6 10.9 77 2.1 W 24 30 13 16 1018.5 1018.4 0.0
26/09:30pm 14.6 10.5 11.4 81 1.7 WSW 24 32 13 17 1018.6 1018.5 0.0
26/09:00pm 15.7 10.9 10.2 70 2.9 W 26 35 14 19 1018.6 1018.5 0.0
26/08:30pm 15.4 10.2 10.2 71 2.7 W 28 33 15 18 1018.6 1018.5 0.0
26/08:00pm 15.3 10.5 10.3 72 2.6 WNW 26 33 14 18 1018.6 1018.5 0.0
26/07:30pm 15.3 10.9 10.5 73 2.5 W 24 32 13 17 1018.4 1018.3 0.0
26/07:00pm 15.0 10.8 11.0 77 2.1 WNW 24 32 13 17 1018.3 1018.2 0.0
26/06:30pm 15.0 10.0 11.0 77 2.1 WNW 28 35 15 19 1018.3 1018.2 0.0
26/06:00pm 15.2 9.7 10.6 74 2.4 WNW 30 37 16 20 1018.3 1018.2 0.0
26/05:30pm 15.3 10.7 10.9 75 2.3 W 26 37 14 20 1018.4 1018.3 0.0
26/05:00pm 15.7 11.7 10.5 71 2.7 W 22 30 12 16 1018.4 1018.3 0.0
26/04:30pm 15.8 10.2 10.1 69 3.0 WNW 30 39 16 21 1018.4 1018.3 0.0
26/04:00pm 15.8 10.7 10.6 71 2.8 WNW 28 35 15 19 1018.4 1018.3 0.0
26/03:30pm 15.7 9.7 10.2 70 2.9 WNW 32 39 17 21 1018.5 1018.4 0.0
26/03:00pm 16.4 11.1 10.0 66 3.4 WNW 28 35 15 19 1018.4 1018.3 0.0
26/02:30pm 15.6 10.3 9.9 69 3.0 WNW 28 39 15 21 1018.7 1018.6 0.0
26/02:00pm 16.0 10.5 9.2 64 3.5 WNW 28 37 15 20 1018.9 1018.8 0.0
26/01:30pm 16.2 10.6 8.9 62 3.8 WNW 28 35 15 19 1019.1 1019.0 0.0
26/01:00pm 15.6 10.8 8.8 64 3.5 WNW 24 32 13 17 1019.4 1019.3 0.0
26/12:30pm 15.6 9.6 8.6 63 3.6 WNW 30 39 16 21 1019.9 1019.9 0.0
26/12:00pm 15.8 10.0 8.1 60 3.9 W 28 35 15 19 1020.1 1020.1 0.0
26/11:30am 15.7 10.0 8.2 61 3.8 W 28 33 15 18 1020.2 1020.2 0.0
26/11:00am 16.2 10.5 8.4 60 4.0 W 28 35 15 19 1020.2 1020.2 0.0
26/10:30am 15.3 10.3 8.1 62 3.6 WNW 24 32 13 17 1020.6 1020.6 0.0
26/10:00am 15.6 10.2 7.9 60 3.9 WNW 26 33 14 18 1020.8 1020.8 0.0
26/09:30am 15.9 10.8 7.7 58 4.1 WNW 24 33 13 18 1020.9 1020.9 0.0
26/09:00am 15.6 10.3 6.6 55 4.4 W 24 33 13 18 1020.7 1020.7 0.0
26/08:30am 14.8 9.5 6.6 58 4.0 W 24 35 13 19 1020.5 1020.5 0.0
26/08:00am 14.5 9.6 6.8 60 3.7 W 22 30 12 16 1020.4 1020.4 0.0
26/07:30am 14.4 9.0 6.3 58 3.9 W 24 32 13 17 1020.3 1020.3 0.0
26/07:00am 13.7 9.1 6.6 62 3.4 WNW 20 28 11 15 1020.1 1020.1 0.0
26/06:30am 13.3 8.7 5.7 60 3.6 W 19 28 10 15 1020.1 1020.1 0.0
26/06:00am 12.9 8.3 5.6 61 3.4 W 19 26 10 14 1019.9 1019.9 0.0
26/05:30am 12.6 8.8 5.8 63 3.2 W 15 19 8 10 1019.7 1019.7 0.0
26/05:00am 12.1 7.8 5.3 63 3.1 WSW 17 20 9 11 1019.6 1019.6 0.0
26/04:30am 11.8 7.8 5.0 63 3.1 WSW 15 20 8 11 1019.6 1019.6 0.0

Other Formats:

Comma delimited format used in spreadsheet applications
http://www.bom.gov.au/fwo/IDW60801/IDW60801.94602.axf

JavaScript Object Notation format (JSON) in row-major order
http://www.bom.gov.au/fwo/IDW60801/IDW60801.94602.json